Latest Weather Observations for Green Cape

IDN60801

Issued at 9:33 pm EDT Sunday 1 March 2015 (issued every 30 minutes, with the page automatically refreshed every 10 minutes)

About weather observations | Map of weather stations | Latest weather observations for NSW | Other Formats
Station Details ID: 069137 Name: GREEN CAPE AWS Lat: -37.26 Lon: 150.05 Height: 19.4 m
Data from the previous 72 hours. | See also: Recent months at Green Cape
Date/Time
EDT
Temp
°C
App
Temp
°C
Dew
Point
Rel
Hum
%
Delta-T
°C
Wind Press
QNH
hPa
Press
MSL
hPa
Rain
since 9 am
mm
Dir
 
Spd
km/h
Gust
km/h
Spd
kts
Gust
kts
01/09:00pm 17.4 13.1 12.1 71 2.9 WSW 26 33 14 18 1016.7 1016.7 0.6
01/08:30pm 17.7 12.7 12.2 70 3.0 SW 30 35 16 19 1016.1 1016.1 0.6
01/08:00pm 17.9 12.4 12.4 70 3.0 SW 33 43 18 23 1015.4 1015.4 0.6
01/07:30pm 18.1 10.5 11.9 67 3.4 SW 43 52 23 28 1014.4 1014.4 0.6
01/07:00pm 18.5 10.9 12.3 67 3.4 SSW 44 54 24 29 1013.5 1013.4 0.6
01/06:30pm 18.9 10.1 12.2 65 3.7 SW 50 69 27 37 1013.2 1013.1 0.6
01/06:22pm 19.0 10.5 10.8 59 4.4 SW 46 69 25 37 1012.7 1012.6 0.6
01/06:00pm 18.9 9.4 11.0 60 4.3 SW 52 69 28 37 1012.1 1012.0 0.6
01/05:30pm 19.1 9.6 12.4 65 3.7 SW 54 63 29 34 1011.6 1011.5 0.6
01/05:00pm 19.6 11.1 12.1 62 4.2 SW 48 59 26 32 1011.6 1011.5 0.6
01/04:30pm 19.9 11.3 11.7 59 4.5 SW 48 59 26 32 1011.1 1011.0 0.6
01/04:00pm 20.1 9.3 11.1 56 4.9 SW 59 74 32 40 1010.5 1010.4 0.6
01/03:55pm 20.1 9.9 10.2 53 5.3 SW 54 74 29 40 1010.2 1010.1 0.6
01/03:49pm 20.1 12.2 11.6 58 4.7 SW 44 63 24 34 1010.4 1010.3 0.6
01/03:30pm 20.0 12.4 12.3 61 4.3 SW 44 54 24 29 1010.5 1010.4 0.6
01/03:08pm 19.7 10.6 12.5 63 4.0 SW 52 70 28 38 1010.4 1010.3 0.6
01/03:00pm 19.4 9.3 12.4 64 3.9 SW 57 72 31 39 1010.2 1010.1 0.6
01/02:50pm 19.9 10.9 12.9 64 4.0 SW 52 72 28 39 1009.8 1009.7 0.6
01/02:30pm 19.4 11.6 14.0 71 3.1 WSW 48 57 26 31 1010.0 1009.9 0.6
01/02:00pm 18.8 11.7 14.1 74 2.7 SW 44 54 24 29 1009.5 1009.4 0.6
01/01:30pm 18.0 10.1 13.7 76 2.4 WSW 48 61 26 33 1009.5 1009.4 0.6
01/01:00pm 17.9 11.5 14.4 80 2.0 SW 41 50 22 27 1009.7 1009.6 0.6
01/12:30pm 18.3 12.1 14.8 80 2.0 SW 41 54 22 29 1009.5 1009.4 0.6
01/12:00pm 17.8 11.2 14.9 83 1.7 SW 43 52 23 28 1009.3 1009.2 0.6
01/11:30am 17.9 13.3 16.2 90 1.0 SSW 35 41 19 22 1008.8 1008.7 0.6
01/11:00am 18.2 13.7 16.4 89 1.1 SW 35 43 19 23 1008.5 1008.4 0.6
01/10:38am 18.5 15.4 17.5 94 0.6 SW 30 50 16 27 1007.8 1007.7 0.6
01/10:30am 19.2 18.0 18.4 95 0.5 SW 22 28 12 15 1008.1 1008.0 0.6
01/10:00am 19.2 17.6 18.4 95 0.5 SSW 24 28 13 15 1007.0 1006.9 0.4
01/09:30am 19.1 17.5 18.3 95 0.5 SSW 24 32 13 17 1007.3 1007.2 0.0
01/09:00am 19.2 20.5 18.4 95 0.5 SSW 9 15 5 8 1006.2 1006.1 2.0
01/08:30am 19.5 20.1 18.5 94 0.6 SSW 13 19 7 10 1006.2 1006.1 0.8
01/08:00am 19.5 19.6 18.3 93 0.7 S 15 19 8 10 1004.9 1004.8 0.6
01/07:30am 19.4 20.5 18.1 92 0.8 ENE 9 13 5 7 1004.4 1004.3 0.6
01/07:00am 19.8 20.7 18.3 91 0.9 SE 11 15 6 8 1004.1 1004.0 0.0
01/06:30am 19.9 20.6 18.0 89 1.2 SSE 11 11 6 6 1003.5 1003.4 0.0
01/06:00am 20.2 19.5 17.4 84 1.7 S 17 20 9 11 1003.4 1003.3 0.0
01/05:30am 20.5 18.9 17.5 83 1.8 SSW 22 28 12 15 1003.7 1003.6 0.0
01/05:00am 20.8 17.7 17.6 82 2.0 SSW 30 32 16 17 1003.8 1003.7 0.0
01/04:30am 20.6 20.1 18.7 89 1.2 SSW 19 24 10 13 1003.5 1003.4 0.0
01/04:00am 20.4 20.9 19.2 93 0.8 WSW 15 20 8 11 1003.4 1003.3 0.0
01/03:30am 20.8 20.9 20.0 95 0.5 W 19 32 10 17 1003.5 1003.4 0.0
01/03:00am 19.4 16.8 18.7 96 0.4 N 30 32 16 17 1001.7 1001.6 0.0
01/02:30am 19.7 17.2 18.9 95 0.5 N 30 33 16 18 1001.7 1001.6 0.0
01/02:00am 20.2 17.4 19.4 95 0.5 N 33 37 18 20 1002.2 1002.1 0.0
01/01:30am 19.8 18.5 19.0 95 0.5 N 24 30 13 16 1002.7 1002.6 0.0
01/01:00am 19.8 17.7 19.0 95 0.5 N 28 32 15 17 1003.4 1003.3 0.0
01/12:30am 20.1 17.2 19.3 95 0.5 N 33 35 18 19 1003.5 1003.4 0.0
01/12:00am 19.9 17.9 19.1 95 0.5 NNE 28 30 15 16 1003.6 1003.5 0.0
 
Date/Time
EDT
Temp
°C
App
Temp
°C
Dew
Point
Rel
Hum
%
Delta-T
°C
Wind Press
QNH
hPa
Press
MSL
hPa
Rain
since 9 am
mm
Dir
 
Spd
km/h
Gust
km/h
Spd
kts
Gust
kts
28/11:30pm 19.9 18.5 18.9 94 0.6 NNE 24 26 13 14 1004.6 1004.5 0.0
28/11:00pm 20.0 19.4 18.8 93 0.8 NNE 20 24 11 13 1005.3 1005.2 0.0
28/10:30pm 20.5 19.3 19.3 93 0.8 NNE 24 26 13 14 1005.4 1005.3 0.0
28/10:00pm 20.6 19.9 19.4 93 0.8 NNE 22 24 12 13 1005.9 1005.8 0.0
28/09:30pm 20.2 20.2 19.0 93 0.8 NNE 17 20 9 11 1006.3 1006.2 0.0
28/09:00pm 20.0 20.3 18.7 92 0.8 N 15 17 8 9 1006.4 1006.3 0.0
28/08:30pm 20.3 20.5 18.6 90 1.1 NNE 15 17 8 9 1006.5 1006.4 0.0
28/08:00pm 20.8 21.8 18.7 88 1.3 N 11 13 6 7 1006.5 1006.4 0.0
28/07:30pm 21.4 23.2 19.5 89 1.2 N 9 15 5 8 1006.3 1006.2 0.0
28/07:00pm 20.5 19.9 18.4 88 1.3 N 19 19 10 10 1005.8 1005.7 0.0
28/06:30pm 21.2 20.2 18.8 86 1.5 N 22 24 12 13 1005.6 1005.5 0.0
28/06:00pm 21.9 20.3 19.3 85 1.7 N 26 28 14 15 1005.7 1005.6 0.0
28/05:30pm 22.2 21.9 19.2 83 1.9 N 19 22 10 12 1005.9 1005.8 0.0
28/05:00pm 22.4 21.7 19.6 84 1.8 N 22 28 12 15 1005.8 1005.7 0.0
28/04:30pm 22.8 22.2 19.8 83 1.9 N 22 26 12 14 1005.7 1005.6 0.0
28/04:00pm 22.6 21.7 19.8 84 1.8 N 24 28 13 15 1005.8 1005.7 0.0
28/03:30pm 22.5 22.4 19.9 85 1.7 N 20 24 11 13 1006.1 1006.0 0.0
28/03:00pm 22.5 20.7 19.5 83 1.9 N 28 32 15 17 1006.2 1006.1 0.0
28/02:30pm 22.7 19.7 19.1 80 2.3 NNE 33 39 18 21 1006.2 1006.1 0.0
28/02:00pm 23.1 19.8 19.3 79 2.4 NNE 35 43 19 23 1006.5 1006.4 0.0
28/01:30pm 22.9 20.8 19.7 82 2.1 NNE 30 33 16 18 1006.8 1006.7 0.0
28/01:00pm 22.5 20.3 19.5 83 1.9 NNE 30 33 16 18 1007.2 1007.1 0.0
28/12:30pm 21.9 19.3 19.5 86 1.5 NNE 32 33 17 18 1007.5 1007.4 0.0
28/12:00pm 22.3 20.6 19.8 86 1.6 NNE 28 32 15 17 1007.7 1007.6 0.0
28/11:30am 21.3 19.3 19.2 88 1.3 N 28 32 15 17 1008.1 1008.0 0.0
28/11:00am 21.4 20.4 18.8 85 1.6 NNE 22 24 12 13 1008.2 1008.1 0.0
28/10:30am 21.6 21.0 18.8 84 1.8 NNE 20 22 11 12 1008.9 1008.8 0.0
28/10:00am 21.9 21.9 18.9 83 1.9 NNE 17 19 9 10 1009.1 1009.0 0.0
28/09:30am 21.7 22.9 19.1 85 1.6 N 11 13 6 7 1009.5 1009.4 0.0
28/09:00am 21.6 23.8 19.3 87 1.5 N 6 7 3 4 1009.4 1009.3 0.0
28/08:30am 20.1 21.9 18.2 89 1.2 NNW 6 6 3 3 1009.4 1009.3 0.0
28/08:00am 20.3 22.1 18.2 88 1.3 N 6 6 3 3 1009.3 1009.2 0.0
28/07:30am 19.9 22.3 18.0 89 1.2 NNW 2 6 1 3 1009.3 1009.2 0.0
28/07:00am 19.1 20.4 17.2 89 1.2 WNW 6 6 3 3 1009.1 1009.0 0.0
28/06:30am 19.5 20.8 17.1 86 1.5 W 6 7 3 4 1009.0 1008.9 0.0
28/06:00am 19.4 20.5 17.2 87 1.3 W 7 9 4 5 1009.0 1008.9 0.0
28/05:30am 19.3 20.5 17.3 88 1.2 W 7 9 4 5 1009.0 1008.9 0.0
28/05:00am 19.3 20.5 17.3 88 1.2 WSW 7 9 4 5 1009.0 1008.9 0.0
28/04:30am 19.2 20.3 17.2 88 1.2 SW 7 9 4 5 1009.2 1009.1 0.0
28/04:00am 19.4 20.6 17.4 88 1.2 WSW 7 9 4 5 1009.5 1009.4 0.0
28/03:30am 19.5 20.8 17.5 88 1.2 SW 7 9 4 5 1009.8 1009.7 0.0
28/03:00am 19.4 20.5 17.2 87 1.3 WSW 7 9 4 5 1010.0 1009.9 0.0
28/02:30am 19.4 20.0 16.8 85 1.6 WSW 9 11 5 6 1010.2 1010.1 0.0
28/02:00am 19.6 20.7 17.0 85 1.6 WSW 7 9 4 5 1010.3 1010.2 0.0
28/01:30am 19.5 20.7 16.9 85 1.6 WSW 6 7 3 4 1010.4 1010.3 0.0
28/01:00am 19.3 20.3 16.9 86 1.5 W 7 9 4 5 1010.6 1010.5 0.0
28/12:30am 19.2 19.6 17.2 88 1.2 W 11 13 6 7 1010.9 1010.8 0.0
28/12:00am 19.3 19.3 17.3 88 1.2 W 13 13 7 7 1010.8 1010.7 0.0
 
Date/Time
EDT
Temp
°C
App
Temp
°C
Dew
Point
Rel
Hum
%
Delta-T
°C
Wind Press
QNH
hPa
Press
MSL
hPa
Rain
since 9 am
mm
Dir
 
Spd
km/h
Gust
km/h
Spd
kts
Gust
kts
27/11:30pm 19.5 19.8 17.1 86 1.5 W 11 13 6 7 1010.9 1010.8 0.0
27/11:00pm 19.9 21.0 16.5 81 2.1 W 6 7 3 4 1010.7 1010.6 0.0
27/10:30pm 19.7 21.1 16.5 82 1.9 WNW 4 6 2 3 1010.7 1010.6 0.0
27/10:00pm 19.7 20.8 16.7 83 1.8 WSW 6 7 3 4 1011.1 1011.0 0.0
27/09:30pm 19.7 20.0 17.1 85 1.6 SW 11 15 6 8 1011.1 1011.0 0.0
27/09:00pm 19.3 19.0 16.5 84 1.7 SSW 13 17 7 9 1010.9 1010.8 0.0
27/08:30pm 19.5 18.0 16.7 84 1.7 SSW 20 28 11 15 1010.9 1010.8 0.0
27/08:00pm 19.6 18.8 17.0 85 1.6 SSW 17 19 9 10 1010.6 1010.5 0.0
27/07:30pm 20.2 21.0 17.2 83 1.8 SSE 9 11 5 6 1010.0 1009.9 0.0
27/07:00pm 20.8 21.6 17.4 81 2.1 S 9 9 5 5 1009.8 1009.7 0.0
27/06:30pm 21.5 23.9 16.9 75 2.8 CALM 0 4 0 2 1010.0 1009.9 0.0
27/06:00pm 22.6 24.4 17.3 72 3.3 NE 4 6 2 3 1009.6 1009.5 0.0
27/05:30pm 24.2 26.0 18.2 69 3.8 NE 6 7 3 4 1009.3 1009.2 0.0
27/05:00pm 23.7 25.3 17.9 70 3.6 NNE 6 7 3 4 1009.0 1008.9 0.0
27/04:30pm 24.8 26.6 18.3 67 4.1 NNE 6 7 3 4 1009.1 1009.0 0.0
27/04:00pm 25.0 25.2 17.7 64 4.6 NNE 13 15 7 8 1008.9 1008.8 0.0
27/03:30pm 25.6 26.6 17.8 62 4.9 NE 9 11 5 6 1009.2 1009.1 0.0
27/03:00pm 25.4 26.3 17.6 62 4.9 NE 9 9 5 5 1009.5 1009.4 0.0
27/02:30pm 24.4 25.8 17.4 65 4.4 NNE 6 7 3 4 1009.8 1009.7 0.0
27/02:00pm 24.8 26.4 17.8 65 4.4 NE 6 7 3 4 1010.0 1009.9 0.0
27/01:30pm 24.3 25.2 17.5 66 4.2 ENE 9 11 5 6 1010.2 1010.1 0.0
27/01:00pm 24.0 25.8 17.3 66 4.2 ESE 4 6 2 3 1010.8 1010.7 0.0
27/12:30pm 22.6 23.6 16.4 68 3.8 ENE 6 7 3 4 1011.3 1011.2 0.0
27/12:00pm 22.2 23.1 16.0 68 3.7 NE 6 7 3 4 1011.2 1011.1 0.0
27/11:30am 23.8 24.8 16.3 63 4.6 NE 6 7 3 4 1011.1 1011.0 0.0
27/11:00am 23.0 24.1 16.5 67 4.0 NE 6 7 3 4 1011.0 1010.9 0.0
27/10:30am 21.2 22.3 15.7 71 3.3 ENE 4 6 2 3 1011.0 1010.9 0.0
27/10:00am 20.3 22.2 15.7 75 2.7 CALM 0 2 0 1 1011.2 1011.1 0.0
27/09:30am 19.3 20.2 15.2 77 2.4 WSW 4 6 2 3 1010.8 1010.7 0.0
27/09:00am 19.0 19.4 14.7 76 2.5 SW 6 6 3 3 1010.6 1010.5 0.0
27/08:30am 18.0 18.2 14.3 79 2.1 W 6 7 3 4 1010.4 1010.3 0.0
27/08:00am 17.4 16.8 14.7 84 1.6 W 11 13 6 7 1010.3 1010.2 0.0
27/07:30am 17.1 16.5 14.7 86 1.4 W 11 15 6 8 1010.1 1010.0 0.0
27/07:00am 17.2 17.5 15.0 87 1.3 W 7 9 4 5 1010.0 1009.9 0.0
27/06:30am 17.5 16.7 15.1 86 1.4 SW 13 15 7 8 1009.9 1009.8 0.0
27/06:00am 17.2 16.4 15.2 88 1.2 WSW 13 15 7 8 1009.9 1009.8 0.0
27/05:30am 17.2 16.6 14.7 85 1.4 W 11 13 6 7 1010.0 1009.9 0.0
27/05:00am 17.1 16.8 14.4 84 1.6 W 9 9 5 5 1010.0 1009.9 0.0
27/04:30am 17.2 16.7 14.8 86 1.4 W 11 13 6 7 1010.1 1010.0 0.0
27/04:00am 17.7 18.1 15.3 86 1.4 WSW 7 9 4 5 1010.3 1010.2 0.0
27/03:30am 17.8 16.0 15.4 86 1.4 WSW 19 22 10 12 1010.3 1010.2 0.0
27/03:00am 17.2 16.1 15.4 89 1.1 WSW 15 17 8 9 1010.1 1010.0 0.0
27/02:30am 17.2 16.8 15.2 88 1.2 WSW 11 15 6 8 1010.3 1010.2 0.0
27/02:00am 16.9 17.3 14.7 87 1.3 W 6 6 3 3 1010.5 1010.4 0.0
27/01:30am 17.3 18.5 14.9 86 1.4 W 2 4 1 2 1010.5 1010.4 0.0
27/01:00am 17.4 18.3 15.2 87 1.3 W 4 6 2 3 1011.0 1010.9 0.0
27/12:30am 17.5 18.0 15.1 86 1.4 W 6 9 3 5 1011.0 1010.9 0.0
27/12:00am 18.2 18.7 14.9 81 1.9 WSW 6 7 3 4 1011.0 1010.9 0.0
 
Date/Time
EDT
Temp
°C
App
Temp
°C
Dew
Point
Rel
Hum
%
Delta-T
°C
Wind Press
QNH
hPa
Press
MSL
hPa
Rain
since 9 am
mm
Dir
 
Spd
km/h
Gust
km/h
Spd
kts
Gust
kts
26/11:30pm 18.3 18.7 14.8 80 2.0 WNW 6 7 3 4 1011.0 1010.9 0.0
26/11:00pm 18.4 17.7 15.3 82 1.8 W 13 15 7 8 1011.0 1010.9 0.0
26/10:30pm 19.1 17.9 15.0 77 2.4 W 15 20 8 11 1011.1 1011.0 0.0
26/10:00pm 19.0 17.0 15.5 80 2.1 W 20 22 11 12 1011.0 1010.9 0.0

Other Formats:

Comma delimited format used in spreadsheet applications
http://www.bom.gov.au/fwo/IDN60801/IDN60801.94934.axf

JavaScript Object Notation format (JSON) in row-major order
http://www.bom.gov.au/fwo/IDN60801/IDN60801.94934.json